Time;durP1;ratioP1;P1;durP2;ratioP2;P2;SDS_P1;SDS_P2;PMS_P1;PMS_P2;Temp;Humidity;BMP_temperature;BMP_pressure;BME280_temperature;BME280_humidity;BME280_pressure;Samples;Min_cycle;Max_cycle;Signal;HPM_P1;HPM_P2
2020/12/03 00:02:17;;;;;;;;;;;21.20;52.40;;;;;;5038983;28;19917;-78
2020/12/03 00:05:03;;;;;;;;;;;21.20;52.40;;;;;;5036653;28;19921;-77
2020/12/03 00:07:49;;;;;;;;;;;21.20;52.40;;;;;;5038698;28;19975;-67
2020/12/03 00:10:38;;;;;;;;;;;21.20;52.50;;;;;;5033946;28;19996;-67
2020/12/03 00:13:24;;;;;;;;;;;21.20;52.50;;;;;;5038003;28;19913;-68
2020/12/03 00:16:10;;;;;;;;;;;21.20;52.50;;;;;;5036472;28;20011;-67
2020/12/03 00:18:56;;;;;;;;;;;21.10;52.60;;;;;;5034238;28;20330;-68
2020/12/03 00:21:34;;;;;;;;;;;21.10;52.60;;;;;;5041833;28;19917;-68
2020/12/03 00:24:20;;;;;;;;;;;21.10;52.60;;;;;;5039137;28;19921;-71
2020/12/03 00:27:06;;;;;;;;;;;21.10;52.60;;;;;;5036860;28;19999;-67
2020/12/03 00:29:52;;;;;;;;;;;21.10;52.60;;;;;;5033718;28;19920;-69
2020/12/03 00:32:38;;;;;;;;;;;21.10;52.60;;;;;;5036622;28;20404;-72
2020/12/03 00:35:24;;;;;;;;;;;21.00;52.60;;;;;;5032476;28;19920;-69
2020/12/03 00:38:09;;;;;;;;;;;21.00;52.60;;;;;;5039302;28;19915;-68
2020/12/03 00:40:55;;;;;;;;;;;21.00;52.60;;;;;;5039272;28;20559;-69
2020/12/03 00:43:41;;;;;;;;;;;21.00;52.60;;;;;;5038947;28;19951;-69
2020/12/03 00:46:27;;;;;;;;;;;21.00;52.60;;;;;;5037073;28;19921;-68
2020/12/03 00:49:13;;;;;;;;;;;21.00;52.50;;;;;;5035951;28;20371;-68
2020/12/03 00:51:59;;;;;;;;;;;21.00;52.40;;;;;;5037666;28;19940;-69
2020/12/03 00:54:44;;;;;;;;;;;21.00;52.50;;;;;;5040003;28;19913;-68
2020/12/03 00:57:30;;;;;;;;;;;21.00;52.60;;;;;;5036514;28;20346;-68
2020/12/03 01:00:16;;;;;;;;;;;21.00;52.80;;;;;;5033992;28;19916;-68
2020/12/03 01:03:02;;;;;;;;;;;20.90;52.90;;;;;;5037507;28;20028;-68
2020/12/03 01:05:48;;;;;;;;;;;20.90;53.10;;;;;;5037112;28;20363;-68
2020/12/03 01:08:34;;;;;;;;;;;20.90;53.40;;;;;;5032935;28;19947;-69
2020/12/03 01:11:20;;;;;;;;;;;20.90;53.50;;;;;;5035613;28;19923;-68
2020/12/03 01:14:06;;;;;;;;;;;20.90;53.60;;;;;;5036124;28;19913;-72
2020/12/03 01:16:52;;;;;;;;;;;20.90;53.60;;;;;;5033961;28;19913;-68
2020/12/03 01:19:37;;;;;;;;;;;20.90;53.60;;;;;;5033353;28;19919;-68
2020/12/03 01:22:23;;;;;;;;;;;20.80;53.60;;;;;;5039643;28;19917;-68
2020/12/03 01:25:09;;;;;;;;;;;20.80;53.60;;;;;;5037430;28;19924;-70
2020/12/03 01:27:55;;;;;;;;;;;20.80;53.70;;;;;;5035719;28;19920;-69
2020/12/03 01:30:41;;;;;;;;;;;20.80;53.80;;;;;;5034737;28;19913;-69
2020/12/03 01:33:27;;;;;;;;;;;20.80;53.90;;;;;;5034608;28;19917;-68
2020/12/03 01:36:13;;;;;;;;;;;20.80;53.90;;;;;;5036647;28;19917;-68
2020/12/03 01:38:59;;;;;;;;;;;20.80;54.00;;;;;;5034967;28;19909;-69
2020/12/03 01:41:45;;;;;;;;;;;20.80;54.00;;;;;;5066874;28;20667;-68
2020/12/03 01:44:31;;;;;;;;;;;20.70;53.90;;;;;;5032124;28;19921;-69
2020/12/03 01:47:17;;;;;;;;;;;20.70;53.90;;;;;;5033123;28;20007;-68
2020/12/03 01:50:02;;;;;;;;;;;20.70;54.00;;;;;;5038948;28;19913;-69
2020/12/03 01:52:48;;;;;;;;;;;20.70;54.10;;;;;;5036697;28;19913;-69
2020/12/03 01:55:34;;;;;;;;;;;20.70;54.10;;;;;;5036998;28;20489;-69
2020/12/03 01:58:20;;;;;;;;;;;20.70;54.20;;;;;;5037232;28;19915;-71
2020/12/03 02:01:06;;;;;;;;;;;20.70;54.80;;;;;;5031473;28;19918;-68
2020/12/03 02:03:52;;;;;;;;;;;20.70;54.20;;;;;;5031069;28;19917;-68
2020/12/03 02:06:41;;;;;;;;;;;20.70;54.30;;;;;;5034907;28;20383;-68
2020/12/03 02:09:26;;;;;;;;;;;20.60;54.40;;;;;;5037826;28;19913;-69
2020/12/03 02:12:12;;;;;;;;;;;20.60;54.50;;;;;;5035496;28;20284;-70
2020/12/03 02:14:58;;;;;;;;;;;20.60;54.50;;;;;;5035940;28;19913;-69
2020/12/03 02:17:44;;;;;;;;;;;20.60;54.40;;;;;;5036387;28;19913;-69
2020/12/03 02:20:30;;;;;;;;;;;20.60;54.40;;;;;;5036954;28;20445;-71
2020/12/03 02:23:18;;;;;;;;;;;20.60;54.30;;;;;;5038525;28;19920;-68
2020/12/03 02:26:04;;;;;;;;;;;20.60;54.30;;;;;;5038027;28;20380;-68
2020/12/03 02:28:50;;;;;;;;;;;20.60;54.30;;;;;;5042814;28;19913;-68
2020/12/03 02:31:36;;;;;;;;;;;20.60;54.30;;;;;;5036570;28;19913;-70
2020/12/03 02:34:22;;;;;;;;;;;20.60;54.50;;;;;;5041811;28;19921;-69
2020/12/03 02:37:11;;;;;;;;;;;20.60;54.50;;;;;;5035493;28;19913;-67
2020/12/03 02:39:57;;;;;;;;;;;20.50;54.50;;;;;;5037736;28;19996;-68
2020/12/03 02:42:43;;;;;;;;;;;20.50;54.50;;;;;;5038595;28;19921;-67
2020/12/03 02:45:28;;;;;;;;;;;20.50;54.50;;;;;;5041772;28;19936;-69
2020/12/03 02:48:14;;;;;;;;;;;20.50;54.50;;;;;;5036253;28;19924;-79
2020/12/03 02:51:00;;;;;;;;;;;20.50;54.50;;;;;;5036756;28;20405;-68
2020/12/03 02:53:46;;;;;;;;;;;20.40;54.40;;;;;;5039202;28;20053;-70
2020/12/03 02:56:32;;;;;;;;;;;20.50;54.50;;;;;;5035087;28;19913;-67
2020/12/03 02:59:18;;;;;;;;;;;20.40;54.40;;;;;;5041146;28;20315;-68
2020/12/03 03:02:04;;;;;;;;;;;20.40;54.30;;;;;;5042534;28;20004;-68
2020/12/03 03:04:49;;;;;;;;;;;20.40;54.20;;;;;;5041233;28;19921;-67
2020/12/03 03:07:35;;;;;;;;;;;20.40;54.20;;;;;;5038798;28;20333;-67
2020/12/03 03:10:22;;;;;;;;;;;20.40;54.20;;;;;;5040020;28;20368;-70
2020/12/03 03:13:10;;;;;;;;;;;20.40;54.20;;;;;;5035284;28;19913;-67
2020/12/03 03:15:56;;;;;;;;;;;20.40;54.20;;;;;;5038195;28;19913;-67
2020/12/03 03:18:42;;;;;;;;;;;20.40;54.20;;;;;;5038065;28;20400;-72
2020/12/03 03:21:28;;;;;;;;;;;20.40;54.10;;;;;;5038032;28;19983;-68
2020/12/03 03:24:14;;;;;;;;;;;20.40;54.00;;;;;;5036175;28;19991;-68
2020/12/03 03:27:00;;;;;;;;;;;20.30;53.90;;;;;;5036482;28;19916;-70
2020/12/03 03:29:46;;;;;;;;;;;20.30;53.90;;;;;;5035082;28;19953;-68
2020/12/03 03:32:32;;;;;;;;;;;20.30;54.00;;;;;;5037277;28;19940;-68
2020/12/03 03:35:17;;;;;;;;;;;20.30;54.10;;;;;;5040349;28;19995;-69
2020/12/03 03:38:03;;;;;;;;;;;20.30;54.30;;;;;;5040353;28;19913;-68
2020/12/03 03:40:49;;;;;;;;;;;20.30;54.40;;;;;;5037461;28;20003;-69
2020/12/03 03:43:35;;;;;;;;;;;20.30;54.50;;;;;;5038024;28;19932;-69
2020/12/03 03:46:21;;;;;;;;;;;20.30;54.60;;;;;;5036586;28;19956;-70
2020/12/03 03:49:07;;;;;;;;;;;20.30;54.60;;;;;;5037564;28;19913;-70
2020/12/03 03:51:53;;;;;;;;;;;20.30;54.70;;;;;;5035609;28;20299;-74
2020/12/03 03:54:38;;;;;;;;;;;20.30;54.80;;;;;;5040273;28;19921;-74
2020/12/03 03:57:24;;;;;;;;;;;20.30;55.00;;;;;;5034998;28;19913;-73
2020/12/03 04:00:10;;;;;;;;;;;20.20;55.10;;;;;;5040953;28;19940;-72
2020/12/03 04:02:56;;;;;;;;;;;20.20;55.20;;;;;;5039925;28;19917;-72
2020/12/03 04:05:42;;;;;;;;;;;20.20;55.20;;;;;;5039274;28;19920;-69
2020/12/03 04:08:28;;;;;;;;;;;20.20;55.30;;;;;;5036662;28;19927;-69
2020/12/03 04:11:16;;;;;;;;;;;20.20;55.30;;;;;;5036824;28;19955;-67
2020/12/03 04:14:01;;;;;;;;;;;20.20;55.40;;;;;;5034226;28;20273;-68
2020/12/03 04:16:47;;;;;;;;;;;20.20;55.40;;;;;;5037381;28;19919;-73
2020/12/03 04:19:39;;;;;;;;;;;20.20;55.60;;;;;;5031334;28;19958;-69
2020/12/03 04:22:08;;;;;;;;;;;20.20;55.60;;;;;;5030864;28;19920;-74
2020/12/03 04:24:37;;;;;;;;;;;20.20;55.60;;;;;;5029175;28;19924;-76
2020/12/03 04:27:03;;;;;;;;;;;20.20;55.50;;;;;;5033545;28;19956;-76
2020/12/03 04:29:29;;;;;;;;;;;20.20;55.60;;;;;;5032079;28;19913;-74
2020/12/03 04:31:55;;;;;;;;;;;20.20;55.60;;;;;;5029944;28;19913;-85
2020/12/03 04:34:22;;;;;;;;;;;20.20;55.60;;;;;;5052936;28;20290;-78
2020/12/03 04:36:48;;;;;;;;;;;20.20;55.60;;;;;;5030672;28;19917;-79
2020/12/03 04:39:14;;;;;;;;;;;20.20;55.60;;;;;;5034431;28;19913;-79
2020/12/03 04:41:40;;;;;;;;;;;20.20;55.60;;;;;;5037427;28;19959;-76
2020/12/03 04:44:27;;;;;;;;;;;20.20;55.70;;;;;;5034375;28;19921;-76
2020/12/03 04:46:59;;;;;;;;;;;20.20;55.70;;;;;;5030607;28;20444;-68
2020/12/03 04:49:25;;;;;;;;;;;20.20;55.70;;;;;;5029814;28;19936;-74
2020/12/03 04:52:02;;;;;;;;;;;20.20;55.80;;;;;;5028701;28;19909;-74
2020/12/03 04:54:32;;;;;;;;;;;20.20;55.80;;;;;;5031906;28;20355;-73
2020/12/03 04:57:18;;;;;;;;;;;20.20;55.90;;;;;;5031842;28;19966;-76
2020/12/03 04:59:53;;;;;;;;;;;20.20;56.00;;;;;;5030307;28;20015;-75
2020/12/03 05:02:38;;;;;;;;;;;20.20;56.00;;;;;;5034890;28;19921;-74
2020/12/03 05:05:10;;;;;;;;;;;20.20;55.80;;;;;;5034915;28;20308;-72
2020/12/03 05:07:36;;;;;;;;;;;20.20;55.70;;;;;;5038275;28;19913;-71
2020/12/03 05:10:12;;;;;;;;;;;20.20;55.60;;;;;;5032314;28;20328;-71
2020/12/03 05:12:41;;;;;;;;;;;20.20;55.50;;;;;;5034297;28;19927;-72
2020/12/03 05:15:22;;;;;;;;;;;20.30;55.40;;;;;;5034186;28;20299;-71
2020/12/03 05:18:08;;;;;;;;;;;20.30;55.20;;;;;;5028794;28;19913;-70
2020/12/03 05:20:37;;;;;;;;;;;20.30;55.20;;;;;;5024251;28;20047;-70
2020/12/03 05:23:12;;;;;;;;;;;20.30;55.20;;;;;;5031663;28;19913;-74
2020/12/03 05:25:38;;;;;;;;;;;20.30;55.20;;;;;;5038600;28;20380;-68
2020/12/03 05:28:30;;;;;;;;;;;20.40;55.20;;;;;;5035657;28;20011;-72
2020/12/03 05:31:31;;;;;;;;;;;20.40;55.20;;;;;;5007848;28;20351;-72
2020/12/03 05:33:58;;;;;;;;;;;20.40;55.10;;;;;;5027550;28;19917;-72
2020/12/03 05:36:32;;;;;;;;;;;20.40;54.90;;;;;;5034315;28;19917;-74
2020/12/03 05:39:03;;;;;;;;;;;20.50;54.90;;;;;;5034761;28;20021;-73
2020/12/03 05:41:32;;;;;;;;;;;20.50;54.90;;;;;;5035362;28;19924;-72
2020/12/03 05:43:58;;;;;;;;;;;20.50;54.80;;;;;;5033964;28;19921;-72
2020/12/03 05:46:25;;;;;;;;;;;20.60;54.70;;;;;;5033935;28;19919;-76
2020/12/03 05:48:55;;;;;;;;;;;20.50;54.60;;;;;;5035165;28;20390;-71
2020/12/03 05:51:26;;;;;;;;;;;20.60;54.60;;;;;;5032260;28;20364;-72
2020/12/03 05:53:53;;;;;;;;;;;20.60;54.50;;;;;;5041644;28;19917;-69
2020/12/03 05:56:20;;;;;;;;;;;20.60;54.40;;;;;;5038661;28;19913;-74
2020/12/03 05:58:46;;;;;;;;;;;20.70;54.30;;;;;;5036540;28;19956;-72
2020/12/03 06:01:17;;;;;;;;;;;20.70;54.20;;;;;;5036825;28;20674;-69
2020/12/03 06:04:02;;;;;;;;;;;20.70;54.00;;;;;;5041542;28;19970;-72
2020/12/03 06:06:43;;;;;;;;;;;20.70;53.70;;;;;;5033662;28;19936;-70
2020/12/03 06:09:15;;;;;;;;;;;20.80;53.30;;;;;;5040526;28;20632;-72
2020/12/03 06:11:44;;;;;;;;;;;20.80;53.00;;;;;;5038679;28;19912;-72
2020/12/03 06:14:29;;;;;;;;;;;20.90;52.90;;;;;;5036437;28;19936;-70
2020/12/03 06:16:55;;;;;;;;;;;20.90;52.70;;;;;;5036671;28;19939;-73
2020/12/03 06:19:30;;;;;;;;;;;20.90;52.60;;;;;;5035612;28;19917;-74
2020/12/03 06:22:18;;;;;;;;;;;20.90;52.60;;;;;;5037660;28;20011;-72
2020/12/03 06:24:50;;;;;;;;;;;21.00;52.60;;;;;;5037261;28;19921;-71
2020/12/03 06:27:27;;;;;;;;;;;21.00;52.50;;;;;;5039505;28;19924;-72
2020/12/03 06:29:53;;;;;;;;;;;21.00;52.50;;;;;;5034682;28;19940;-73
2020/12/03 06:32:38;;;;;;;;;;;21.00;52.60;;;;;;5036421;28;19920;-74
2020/12/03 06:35:40;;;;;;;;;;;21.10;52.60;;;;;;5043689;28;19909;-74
2020/12/03 06:38:16;;;;;;;;;;;21.10;52.50;;;;;;4979356;28;19924;-74
2020/12/03 06:40:45;;;;;;;;;;;21.20;52.50;;;;;;5027467;28;19913;-77
2020/12/03 06:43:32;;;;;;;;;;;21.20;52.40;;;;;;5040141;28;19925;-73
2020/12/03 06:46:16;;;;;;;;;;;21.20;52.30;;;;;;5038688;28;19921;-76
2020/12/03 06:48:49;;;;;;;;;;;21.20;52.10;;;;;;5036439;28;19924;-76
2020/12/03 06:51:25;;;;;;;;;;;21.30;52.00;;;;;;5038004;28;19919;-74
2020/12/03 06:53:54;;;;;;;;;;;21.30;51.90;;;;;;5038696;28;19917;-74
2020/12/03 06:56:39;;;;;;;;;;;21.30;51.80;;;;;;5041237;28;19912;-77
2020/12/03 06:59:14;;;;;;;;;;;21.40;51.60;;;;;;5041344;28;19913;-74
2020/12/03 07:02:12;;;;;;;;;;;21.40;51.50;;;;;;5037821;28;19912;-74
2020/12/03 07:05:11;;;;;;;;;;;21.40;51.40;;;;;;5003552;28;20346;-76
2020/12/03 07:07:51;;;;;;;;;;;21.50;51.30;;;;;;5008865;28;19917;-76
2020/12/03 07:10:43;;;;;;;;;;;21.50;51.20;;;;;;5037741;28;19931;-76
2020/12/03 07:13:21;;;;;;;;;;;21.50;51.00;;;;;;5037034;28;19917;-71
2020/12/03 07:16:06;;;;;;;;;;;21.60;50.80;;;;;;5037582;28;20368;-74
2020/12/03 07:19:01;;;;;;;;;;;21.70;50.80;;;;;;5034879;28;19998;-71
2020/12/03 07:21:47;;;;;;;;;;;21.70;51.00;;;;;;5023503;28;20261;-75
2020/12/03 07:24:13;;;;;;;;;;;21.70;50.60;;;;;;5037406;28;19931;-74
2020/12/03 07:26:51;;;;;;;;;;;21.80;50.60;;;;;;5033857;28;19909;-75
2020/12/03 07:29:41;;;;;;;;;;;21.80;50.50;;;;;;5034799;28;19924;-76
2020/12/03 07:32:18;;;;;;;;;;;21.80;50.40;;;;;;5026370;28;20391;-72
2020/12/03 07:34:46;;;;;;;;;;;21.90;50.30;;;;;;5036766;28;19920;-76
2020/12/03 07:37:22;;;;;;;;;;;21.90;50.10;;;;;;5037718;28;19917;-76
2020/12/03 07:39:49;;;;;;;;;;;21.90;50.00;;;;;;5034380;28;19916;-77
2020/12/03 07:42:22;;;;;;;;;;;22.00;49.90;;;;;;5039338;28;19943;-75
2020/12/03 07:44:53;;;;;;;;;;;22.00;49.80;;;;;;5038929;28;19928;-70
2020/12/03 07:47:33;;;;;;;;;;;22.00;49.80;;;;;;5039965;28;19917;-74
2020/12/03 07:50:03;;;;;;;;;;;22.10;49.80;;;;;;5037332;28;19924;-75
2020/12/03 07:52:30;;;;;;;;;;;22.10;49.70;;;;;;5034350;28;20352;-68
2020/12/03 07:55:14;;;;;;;;;;;22.20;49.80;;;;;;5039260;28;19958;-70
2020/12/03 07:57:40;;;;;;;;;;;22.20;49.70;;;;;;5032372;28;19913;-68
2020/12/03 08:00:24;;;;;;;;;;;22.20;49.60;;;;;;5040657;28;20004;-71
2020/12/03 08:02:54;;;;;;;;;;;22.20;49.70;;;;;;5041667;28;19917;-69
2020/12/03 08:05:35;;;;;;;;;;;22.30;49.70;;;;;;5031817;28;19999;-69
2020/12/03 08:08:01;;;;;;;;;;;22.30;49.60;;;;;;5043057;28;20003;-69
2020/12/03 08:10:53;;;;;;;;;;;22.40;49.80;;;;;;5038151;28;20511;-73
2020/12/03 08:13:31;;;;;;;;;;;22.40;49.70;;;;;;5036246;28;19999;-69
2020/12/03 08:16:03;;;;;;;;;;;22.50;50.00;;;;;;5035211;28;19943;-69
2020/12/03 08:18:46;;;;;;;;;;;22.50;49.60;;;;;;5033396;28;19913;-69
2020/12/03 08:21:14;;;;;;;;;;;22.60;49.30;;;;;;5038264;28;19932;-68
2020/12/03 08:23:48;;;;;;;;;;;22.60;49.20;;;;;;5034793;28;19917;-69
2020/12/03 08:26:22;;;;;;;;;;;22.70;49.30;;;;;;5036124;28;19925;-68
2020/12/03 08:28:50;;;;;;;;;;;22.70;49.20;;;;;;5034989;28;19920;-67
2020/12/03 08:31:16;;;;;;;;;;;22.70;49.20;;;;;;5034389;28;19921;-71
2020/12/03 08:33:42;;;;;;;;;;;22.70;49.20;;;;;;5035571;28;19921;-68
2020/12/03 08:36:09;;;;;;;;;;;22.70;49.30;;;;;;5039595;28;19913;-69
2020/12/03 08:38:38;;;;;;;;;;;22.70;49.30;;;;;;5037960;28;19921;-70
2020/12/03 08:41:14;;;;;;;;;;;22.80;49.30;;;;;;5031926;28;19943;-68
2020/12/03 08:43:47;;;;;;;;;;;22.80;49.30;;;;;;5034816;28;19947;-72
2020/12/03 08:46:20;;;;;;;;;;;22.90;49.20;;;;;;5035937;28;20008;-72
2020/12/03 08:48:48;;;;;;;;;;;22.90;49.20;;;;;;5034003;28;20462;-68
2020/12/03 08:51:16;;;;;;;;;;;23.00;49.20;;;;;;5035415;28;19913;-72
2020/12/03 08:53:47;;;;;;;;;;;23.00;49.10;;;;;;5037166;28;20348;-74
2020/12/03 08:56:16;;;;;;;;;;;23.10;49.00;;;;;;5036952;28;19924;-75
2020/12/03 08:58:47;;;;;;;;;;;23.20;48.70;;;;;;5034391;28;20357;-67
2020/12/03 09:01:13;;;;;;;;;;;23.20;48.60;;;;;;5031652;28;19923;-68
2020/12/03 09:03:40;;;;;;;;;;;23.20;48.40;;;;;;5033415;28;19930;-68
2020/12/03 09:06:08;;;;;;;;;;;23.20;48.50;;;;;;5032493;28;19932;-68
2020/12/03 09:08:35;;;;;;;;;;;23.30;48.60;;;;;;5035427;28;19920;-68
2020/12/03 09:11:01;;;;;;;;;;;23.30;48.70;;;;;;5039263;28;19923;-68
2020/12/03 09:13:28;;;;;;;;;;;23.30;48.70;;;;;;5033395;28;20252;-70
2020/12/03 09:15:55;;;;;;;;;;;23.30;48.80;;;;;;5032895;28;19963;-70
2020/12/03 09:18:22;;;;;;;;;;;23.40;48.90;;;;;;5035960;28;19913;-69
2020/12/03 09:20:48;;;;;;;;;;;23.40;49.00;;;;;;5031857;28;19975;-69
2020/12/03 09:23:15;;;;;;;;;;;23.40;49.10;;;;;;5037812;28;19956;-68
2020/12/03 09:25:41;;;;;;;;;;;23.50;49.10;;;;;;5030863;28;19951;-72
2020/12/03 09:28:08;;;;;;;;;;;23.60;49.10;;;;;;5035710;28;19913;-68
2020/12/03 09:30:35;;;;;;;;;;;23.60;49.10;;;;;;5037869;28;19917;-69
2020/12/03 09:33:03;;;;;;;;;;;23.60;49.00;;;;;;5038823;28;19916;-69
2020/12/03 09:35:30;;;;;;;;;;;23.70;48.90;;;;;;5041065;28;20373;-69
2020/12/03 09:38:00;;;;;;;;;;;23.70;48.80;;;;;;5037637;28;20447;-69
2020/12/03 09:40:27;;;;;;;;;;;23.70;48.60;;;;;;5036109;28;19956;-68
2020/12/03 09:42:53;;;;;;;;;;;23.80;48.60;;;;;;5036247;28;19978;-69
2020/12/03 09:45:22;;;;;;;;;;;23.80;48.60;;;;;;5035294;28;19929;-69
2020/12/03 09:47:48;;;;;;;;;;;23.90;48.50;;;;;;5042639;28;19908;-69
2020/12/03 09:50:14;;;;;;;;;;;23.90;48.50;;;;;;5039629;28;19959;-68
2020/12/03 09:52:41;;;;;;;;;;;23.90;49.20;;;;;;5047482;28;20326;-69
2020/12/03 09:55:08;;;;;;;;;;;24.00;48.50;;;;;;5041360;28;19958;-69
2020/12/03 09:57:34;;;;;;;;;;;24.00;48.40;;;;;;5040098;28;20395;-69
2020/12/03 10:00:02;;;;;;;;;;;24.10;48.50;;;;;;5037249;28;19912;-70
2020/12/03 10:02:50;;;;;;;;;;;24.10;48.50;;;;;;5039181;28;20273;-69
2020/12/03 10:05:16;;;;;;;;;;;24.10;48.40;;;;;;5052510;28;19957;-69
2020/12/03 10:07:43;;;;;;;;;;;24.20;48.10;;;;;;5036521;28;20328;-69
2020/12/03 10:10:15;;;;;;;;;;;24.20;47.80;;;;;;5039079;28;19913;-69
2020/12/03 10:13:09;;;;;;;;;;;24.30;47.70;;;;;;5056192;28;19971;-68
2020/12/03 10:15:53;;;;;;;;;;;24.30;47.30;;;;;;5038991;28;19955;-68
2020/12/03 10:18:46;;;;;;;;;;;24.30;47.20;;;;;;5038766;28;19920;-70
2020/12/03 10:21:15;;;;;;;;;;;24.40;47.00;;;;;;5033278;28;20342;-69
2020/12/03 10:23:50;;;;;;;;;;;24.40;46.60;;;;;;5041508;28;20004;-70
2020/12/03 10:26:34;;;;;;;;;;;24.50;46.40;;;;;;5070420;28;20367;-68
2020/12/03 10:29:24;;;;;;;;;;;24.50;46.50;;;;;;5038533;28;19921;-69
2020/12/03 10:32:10;;;;;;;;;;;24.60;46.30;;;;;;5031590;28;19964;-69
2020/12/03 10:34:59;;;;;;;;;;;24.60;46.20;;;;;;5035146;28;20304;-69
2020/12/03 10:37:51;;;;;;;;;;;24.60;46.00;;;;;;5037678;28;19917;-69
2020/12/03 10:40:18;;;;;;;;;;;24.70;45.90;;;;;;5032908;28;19913;-69
2020/12/03 10:42:53;;;;;;;;;;;24.70;45.90;;;;;;5034554;28;19931;-71
2020/12/03 10:45:25;;;;;;;;;;;24.80;45.90;;;;;;5036889;28;19973;-71
2020/12/03 10:47:56;;;;;;;;;;;24.80;45.80;;;;;;5038013;28;19965;-72
2020/12/03 10:50:42;;;;;;;;;;;24.80;45.70;;;;;;5035106;28;19949;-68
2020/12/03 10:53:08;;;;;;;;;;;24.80;45.90;;;;;;5036257;28;20356;-68
2020/12/03 10:55:34;;;;;;;;;;;24.90;45.50;;;;;;5036046;28;20434;-69
2020/12/03 10:58:05;;;;;;;;;;;24.90;45.50;;;;;;5039900;28;19979;-68
2020/12/03 11:00:32;;;;;;;;;;;25.00;45.10;;;;;;5036251;28;19928;-72
2020/12/03 11:03:02;;;;;;;;;;;25.00;45.20;;;;;;5041046;28;19917;-69
2020/12/03 11:05:28;;;;;;;;;;;25.00;45.40;;;;;;5064670;28;19925;-69
2020/12/03 11:07:55;;;;;;;;;;;25.10;45.50;;;;;;5035925;28;19917;-68
2020/12/03 11:10:22;;;;;;;;;;;25.10;45.30;;;;;;5038022;28;19923;-68
2020/12/03 11:12:50;;;;;;;;;;;25.10;45.20;;;;;;5040792;28;20295;-69
2020/12/03 11:15:19;;;;;;;;;;;25.20;45.30;;;;;;5038556;28;20355;-67
2020/12/03 11:17:52;;;;;;;;;;;25.20;45.40;;;;;;5038470;28;19921;-68
2020/12/03 11:20:20;;;;;;;;;;;25.20;45.50;;;;;;5043121;28;19917;-69
2020/12/03 11:22:46;;;;;;;;;;;25.20;45.40;;;;;;5032669;28;19963;-69
2020/12/03 11:25:13;;;;;;;;;;;25.30;45.60;;;;;;5037251;28;19921;-68
2020/12/03 11:27:42;;;;;;;;;;;25.30;45.30;;;;;;5034346;28;19924;-69
2020/12/03 11:30:14;;;;;;;;;;;25.30;45.20;;;;;;5035091;28;19905;-68
2020/12/03 11:32:52;;;;;;;;;;;25.30;45.30;;;;;;5034539;28;19920;-68
2020/12/03 11:35:36;;;;;;;;;;;25.40;45.30;;;;;;5032526;28;19976;-68
2020/12/03 11:38:04;;;;;;;;;;;25.40;45.40;;;;;;5034762;28;20004;-68
2020/12/03 11:40:36;;;;;;;;;;;25.40;45.20;;;;;;5035447;28;20403;-67
2020/12/03 11:50:41;;;;;;;;;;;25.50;45.40;;;;;;5035555;28;19909;-67
2020/12/03 11:53:07;;;;;;;;;;;25.60;45.50;;;;;;5036176;28;20364;-67
2020/12/03 11:55:37;;;;;;;;;;;25.60;45.50;;;;;;5036622;28;20015;-66
2020/12/03 11:58:05;;;;;;;;;;;25.70;45.20;;;;;;5031075;28;19940;-68
2020/12/03 12:00:32;;;;;;;;;;;25.70;45.20;;;;;;5031669;28;19967;-68
2020/12/03 12:03:03;;;;;;;;;;;25.80;45.00;;;;;;5031599;28;19979;-67
2020/12/03 12:08:02;;;;;;;;;;;25.80;45.00;;;;;;5039642;28;19938;-71
2020/12/03 12:10:36;;;;;;;;;;;25.80;45.10;;;;;;5034890;28;20261;-68
2020/12/03 12:13:03;;;;;;;;;;;25.80;45.30;;;;;;5031237;28;20187;-68
2020/12/03 12:15:29;;;;;;;;;;;25.80;45.30;;;;;;5033536;28;19925;-68
2020/12/03 12:17:55;;;;;;;;;;;25.80;45.40;;;;;;5035828;28;20668;-69
2020/12/03 12:20:23;;;;;;;;;;;25.80;45.30;;;;;;5032657;28;19921;-72
2020/12/03 12:22:49;;;;;;;;;;;25.90;45.10;;;;;;5031855;28;19913;-68
2020/12/03 12:25:15;;;;;;;;;;;25.90;44.90;;;;;;5032280;28;19928;-68
2020/12/03 12:27:41;;;;;;;;;;;25.90;45.10;;;;;;5030811;28;19921;-67
2020/12/03 12:30:07;;;;;;;;;;;25.90;45.10;;;;;;5041524;28;19916;-67
2020/12/03 12:32:33;;;;;;;;;;;25.90;45.20;;;;;;5031264;28;19916;-68
2020/12/03 12:34:59;;;;;;;;;;;25.90;45.20;;;;;;5033663;28;19964;-69
2020/12/03 12:37:26;;;;;;;;;;;25.90;45.20;;;;;;5031409;28;19917;-71
2020/12/03 12:39:52;;;;;;;;;;;25.90;45.20;;;;;;5034853;28;19932;-68
2020/12/03 12:42:18;;;;;;;;;;;26.00;45.10;;;;;;5039291;28;20058;-67
2020/12/03 12:44:44;;;;;;;;;;;26.00;45.20;;;;;;5034468;28;19921;-70
2020/12/03 12:47:10;;;;;;;;;;;25.90;45.30;;;;;;5031891;28;20290;-69
2020/12/03 12:49:36;;;;;;;;;;;25.90;45.30;;;;;;5030275;28;19914;-68
2020/12/03 12:52:02;;;;;;;;;;;25.90;45.30;;;;;;5032302;28;19916;-67
2020/12/03 12:54:29;;;;;;;;;;;25.90;45.40;;;;;;5036857;28;19917;-69
2020/12/03 12:56:55;;;;;;;;;;;25.90;45.30;;;;;;5032379;28;20254;-73
2020/12/03 12:59:22;;;;;;;;;;;25.90;45.40;;;;;;5036139;28;19921;-68
2020/12/03 13:01:49;;;;;;;;;;;26.00;45.40;;;;;;5031846;28;19917;-71
2020/12/03 13:04:15;;;;;;;;;;;26.00;45.40;;;;;;5033859;28;19917;-69
2020/12/03 13:06:42;;;;;;;;;;;26.00;45.40;;;;;;5035001;28;19917;-67
2020/12/03 13:09:08;;;;;;;;;;;26.00;45.50;;;;;;5035712;28;19937;-68
2020/12/03 13:11:35;;;;;;;;;;;26.00;45.60;;;;;;5038638;28;19931;-70
2020/12/03 13:14:05;;;;;;;;;;;26.10;45.70;;;;;;5033663;28;20387;-69
2020/12/03 13:16:31;;;;;;;;;;;26.00;45.60;;;;;;5056999;28;19916;-69
2020/12/03 13:18:58;;;;;;;;;;;26.00;45.70;;;;;;5035415;28;19925;-66
2020/12/03 13:21:24;;;;;;;;;;;26.10;45.70;;;;;;5036301;28;19932;-69
2020/12/03 13:23:51;;;;;;;;;;;26.00;45.70;;;;;;5035512;28;19924;-66
2020/12/03 13:26:18;;;;;;;;;;;26.00;45.80;;;;;;5030606;28;19945;-67
2020/12/03 13:28:44;;;;;;;;;;;26.10;45.90;;;;;;5032340;28;20316;-69
2020/12/03 13:31:10;;;;;;;;;;;26.00;46.00;;;;;;5032799;28;19948;-67
2020/12/03 13:33:36;;;;;;;;;;;26.00;46.20;;;;;;5039747;28;19917;-73
2020/12/03 13:36:02;;;;;;;;;;;26.00;46.40;;;;;;5037447;28;19913;-70
2020/12/03 13:38:29;;;;;;;;;;;26.00;46.40;;;;;;5039493;28;20530;-69
2020/12/03 13:40:55;;;;;;;;;;;25.90;46.20;;;;;;5031970;28;19928;-68
2020/12/03 13:43:21;;;;;;;;;;;26.00;46.40;;;;;;5031863;28;20002;-70
2020/12/03 13:46:07;;;;;;;;;;;25.90;46.40;;;;;;5034768;28;19967;-72
2020/12/03 13:48:53;;;;;;;;;;;25.90;46.50;;;;;;5036250;28;19988;-71
2020/12/03 13:51:39;;;;;;;;;;;25.90;46.70;;;;;;5037082;28;20011;-68
2020/12/03 13:54:25;;;;;;;;;;;26.00;47.00;;;;;;5034114;28;19913;-73
2020/12/03 13:57:11;;;;;;;;;;;26.00;46.80;;;;;;5037887;28;20376;-69
2020/12/03 13:59:57;;;;;;;;;;;26.00;46.90;;;;;;5031504;28;19917;-71
2020/12/03 14:02:42;;;;;;;;;;;26.00;46.90;;;;;;5030077;28;19913;-72
2020/12/03 14:05:28;;;;;;;;;;;26.00;47.00;;;;;;5031474;28;19921;-70
2020/12/03 14:08:14;;;;;;;;;;;26.00;47.10;;;;;;5032995;28;20367;-69
2020/12/03 14:11:00;;;;;;;;;;;25.90;47.00;;;;;;5031477;28;19960;-71
2020/12/03 14:13:46;;;;;;;;;;;25.90;46.90;;;;;;5031288;28;19979;-70
2020/12/03 14:16:32;;;;;;;;;;;25.90;47.00;;;;;;5038698;28;19913;-69
2020/12/03 14:19:18;;;;;;;;;;;25.90;47.10;;;;;;5034945;28;19912;-70
2020/12/03 14:22:04;;;;;;;;;;;25.90;47.30;;;;;;5036164;28;19913;-70
2020/12/03 14:24:50;;;;;;;;;;;25.90;47.50;;;;;;5039134;28;20003;-76
2020/12/03 14:27:16;;;;;;;;;;;25.80;47.40;;;;;;5034177;28;19917;-73
2020/12/03 14:29:42;;;;;;;;;;;25.90;47.70;;;;;;5040613;28;19999;-73
2020/12/03 14:32:09;;;;;;;;;;;25.80;47.80;;;;;;5029207;28;19922;-71
2020/12/03 14:34:36;;;;;;;;;;;25.80;48.00;;;;;;5038113;28;20339;-73
2020/12/03 14:37:21;;;;;;;;;;;25.80;48.10;;;;;;5039069;28;20281;-71
2020/12/03 14:40:07;;;;;;;;;;;25.80;48.20;;;;;;5035124;28;20438;-75
2020/12/03 14:42:53;;;;;;;;;;;25.80;48.30;;;;;;5035998;28;19925;-74
2020/12/03 14:45:39;;;;;;;;;;;25.80;48.30;;;;;;5034308;28;19925;-73
2020/12/03 14:48:26;;;;;;;;;;;25.70;48.40;;;;;;5037672;28;20010;-75
2020/12/03 14:51:12;;;;;;;;;;;25.70;48.50;;;;;;5036833;28;19926;-75
2020/12/03 14:53:58;;;;;;;;;;;25.70;48.80;;;;;;5036707;28;19924;-73
2020/12/03 14:56:44;;;;;;;;;;;25.70;48.90;;;;;;5035378;28;20310;-72
2020/12/03 14:59:17;;;;;;;;;;;25.70;49.00;;;;;;5036355;28;19913;-72
2020/12/03 15:02:03;;;;;;;;;;;25.70;49.10;;;;;;5037964;28;20012;-70
2020/12/03 15:04:49;;;;;;;;;;;25.70;49.40;;;;;;5034145;28;19917;-71
2020/12/03 15:07:34;;;;;;;;;;;25.70;49.60;;;;;;5035802;28;20454;-73
2020/12/03 15:10:30;;;;;;;;;;;25.60;49.80;;;;;;5032316;28;20390;-75
2020/12/03 15:13:16;;;;;;;;;;;25.60;50.40;;;;;;5031468;28;19913;-75
2020/12/03 15:15:42;;;;;;;;;;;25.60;50.70;;;;;;5032414;28;19921;-72
2020/12/03 15:18:08;;;;;;;;;;;25.40;50.70;;;;;;5036292;28;19913;-79
2020/12/03 15:20:35;;;;;;;;;;;25.40;51.10;;;;;;5037698;28;19947;-78
2020/12/03 15:23:02;;;;;;;;;;;25.50;51.20;;;;;;5036558;28;19966;-76